createdAt,value
2022-10-18T00:04:01.728Z,101289.59
2022-10-18T00:09:02.586Z,101293.22
2022-10-18T00:14:04.993Z,101308.13
2022-10-18T00:19:05.795Z,101305.78
2022-10-18T00:24:07.386Z,101306.53
2022-10-18T00:29:14.942Z,101311.06
2022-10-18T00:34:17.441Z,101307.50
2022-10-18T00:39:20.174Z,101311.03
2022-10-18T00:44:58.438Z,101312.03
2022-10-18T00:50:04.604Z,101305.13
2022-10-18T00:55:07.163Z,101304.38
2022-10-18T01:00:10.056Z,101306.09
2022-10-18T01:05:14.625Z,101297.34
2022-10-18T01:10:25.054Z,101294.94
2022-10-18T01:15:29.106Z,101300.16
2022-10-18T01:20:54.671Z,101305.38
2022-10-18T01:26:04.577Z,101307.28
2022-10-18T01:31:10.360Z,101298.47
2022-10-18T01:36:19.361Z,101302.09
2022-10-18T01:41:23.789Z,101296.91
2022-10-18T01:46:27.290Z,101300.41
2022-10-18T01:51:29.920Z,101312.69
2022-10-18T01:56:42.789Z,101305.75
2022-10-18T02:01:55.935Z,101312.88
2022-10-18T02:07:03.570Z,101307.59
2022-10-18T02:12:05.902Z,101307.75
2022-10-18T02:17:12.128Z,101312.94
2022-10-18T02:22:13.889Z,101308.66
2022-10-18T02:27:14.913Z,101305.22
2022-10-18T02:32:21.892Z,101311.41
2022-10-18T02:37:22.882Z,101312.31
2022-10-18T02:42:23.858Z,101313.22
2022-10-18T02:47:25.991Z,101321.09
2022-10-18T02:52:26.772Z,101322.91
2022-10-18T02:57:27.595Z,101319.50
2022-10-18T03:02:29.760Z,101316.91
2022-10-18T03:07:30.712Z,101315.16
2022-10-18T03:12:31.740Z,101318.72
2022-10-18T03:17:34.215Z,101323.88
2022-10-18T03:22:35.295Z,101321.28
2022-10-18T03:27:36.070Z,101320.47
2022-10-18T03:32:38.236Z,101326.53
2022-10-18T03:37:39.051Z,101337.91
2022-10-18T03:42:39.870Z,101336.19
2022-10-18T03:47:41.983Z,101327.53
2022-10-18T03:52:42.866Z,101325.78
2022-10-18T03:57:43.638Z,101321.31
2022-10-18T04:02:45.767Z,101326.47
2022-10-18T04:07:46.552Z,101326.28
2022-10-18T04:12:47.367Z,101322.69
2022-10-18T04:17:49.529Z,101323.47
2022-10-18T04:22:50.852Z,101324.16
2022-10-18T04:27:51.705Z,101321.59
2022-10-18T04:32:53.827Z,101317.06
2022-10-18T04:37:54.643Z,101313.59
2022-10-18T04:42:55.387Z,101320.47
2022-10-18T04:47:57.513Z,101318.69
2022-10-18T04:52:58.423Z,101337.00
2022-10-18T04:57:59.236Z,101330.78
2022-10-18T05:03:01.400Z,101331.50
2022-10-18T05:08:02.262Z,101328.91
2022-10-18T05:13:03.033Z,101317.56
2022-10-18T05:18:05.231Z,101305.25
2022-10-18T05:23:06.101Z,101322.38
2022-10-18T05:28:11.114Z,101315.41
2022-10-18T05:33:29.987Z,101310.00
2022-10-18T05:38:31.513Z,101306.53
2022-10-18T05:43:32.472Z,101303.81
2022-10-18T05:48:34.842Z,101306.25
2022-10-18T05:53:37.069Z,101300.84
2022-10-18T05:58:38.490Z,101288.50
2022-10-18T06:03:40.717Z,101266.53
2022-10-18T06:08:43.084Z,101249.88
2022-10-18T06:13:44.396Z,101257.84
2022-10-18T06:18:49.398Z,101263.88
2022-10-18T06:23:50.749Z,101267.22
2022-10-18T06:28:51.862Z,101254.34
2022-10-18T06:33:54.179Z,101260.53
2022-10-18T06:38:56.120Z,101242.78
2022-10-18T06:43:58.645Z,101272.19
2022-10-18T06:49:00.819Z,101277.50
2022-10-18T06:54:17.600Z,101276.44
2022-10-18T06:59:19.267Z,101286.03
2022-10-18T07:04:21.488Z,101275.34
2022-10-18T07:09:22.289Z,101266.84
2022-10-18T07:14:28.192Z,101261.09
2022-10-18T07:19:31.237Z,101266.28
2022-10-18T07:29:39.660Z,101281.44
2022-10-18T07:34:41.866Z,101280.88
2022-10-18T07:39:42.757Z,101265.34
2022-10-18T07:44:43.562Z,101262.38
2022-10-18T07:49:45.917Z,101268.22
2022-10-18T07:54:46.749Z,101269.78
2022-10-18T07:59:48.312Z,101264.19
2022-10-18T08:04:50.525Z,101260.09
2022-10-18T08:09:51.360Z,101256.31
2022-10-18T08:14:52.200Z,101256.31
2022-10-18T08:20:11.625Z,101256.25
2022-10-18T08:25:13.382Z,101254.50
2022-10-18T08:30:14.495Z,101222.38
2022-10-18T08:35:16.713Z,101211.06
2022-10-18T08:40:17.603Z,101210.22
2022-10-18T08:45:37.360Z,101186.28
2022-10-18T08:50:41.413Z,101186.53
2022-10-18T08:55:47.351Z,101181.66
2022-10-18T09:00:59.256Z,101192.81
2022-10-18T09:06:12.959Z,101191.66
2022-10-18T09:11:28.169Z,101186.16
2022-10-18T09:16:40.417Z,101172.53
2022-10-18T09:21:52.169Z,101172.56
2022-10-18T09:26:58.260Z,101161.09
2022-10-18T09:32:05.540Z,101156.63
2022-10-18T09:37:13.237Z,101137.91
2022-10-18T09:42:19.396Z,101135.09
2022-10-18T09:47:26.308Z,101137.13
2022-10-18T09:52:35.473Z,101123.13
2022-10-18T09:57:40.517Z,101119.03
2022-10-18T10:02:41.537Z,101106.44
2022-10-18T10:07:47.795Z,101101.50
2022-10-18T10:12:49.817Z,101091.47
2022-10-18T10:17:57.798Z,101100.53
2022-10-18T10:23:08.308Z,101094.41
2022-10-18T10:28:15.294Z,101083.63
2022-10-18T10:33:34.023Z,101082.06
2022-10-18T10:38:36.131Z,101124.69
2022-10-18T10:43:40.070Z,101168.06
2022-10-18T10:48:50.456Z,101183.06
2022-10-18T10:54:01.217Z,101217.56
2022-10-18T10:59:10.938Z,101208.19
2022-10-18T11:04:27.076Z,101216.47
2022-10-18T11:09:43.244Z,101219.66
2022-10-18T11:14:47.005Z,101200.78
2022-10-18T11:20:01.295Z,101198.38
2022-10-18T11:25:05.336Z,101217.69
2022-10-18T11:30:38.818Z,101210.72
2022-10-18T11:35:47.157Z,101219.41
2022-10-18T11:41:03.254Z,101242.81
2022-10-18T11:46:13.724Z,101227.00
2022-10-18T11:51:38.720Z,101224.22
2022-10-18T11:56:54.681Z,101231.13
2022-10-18T12:02:11.328Z,101254.97
2022-10-18T12:07:15.182Z,101250.81
2022-10-18T12:12:23.111Z,101261.47
2022-10-18T12:17:44.041Z,101259.03
2022-10-18T12:22:55.060Z,101258.97
2022-10-18T12:33:27.353Z,101268.06
2022-10-18T12:38:32.621Z,101272.50
2022-10-18T12:43:37.673Z,101279.47
2022-10-18T12:48:42.423Z,101260.19
2022-10-18T12:53:45.895Z,101264.22
2022-10-18T12:58:48.181Z,101273.56
2022-10-18T13:03:55.311Z,101283.38
2022-10-18T13:09:19.785Z,101287.78
2022-10-18T13:15:05.620Z,101289.75
2022-10-18T13:20:27.082Z,101282.78
2022-10-18T13:25:35.161Z,101298.31
2022-10-18T13:30:47.644Z,101297.41
2022-10-18T13:35:56.469Z,101299.09
2022-10-18T13:41:03.002Z,101299.00
2022-10-18T13:46:05.441Z,101287.91
2022-10-18T13:51:31.434Z,101295.66
2022-10-18T13:56:47.408Z,101282.34
2022-10-18T14:02:05.364Z,101284.19
2022-10-18T14:07:08.614Z,101273.50
2022-10-18T14:12:17.672Z,101278.03
2022-10-18T14:17:30.668Z,101268.16
2022-10-18T14:22:37.694Z,101275.69
2022-10-18T14:27:38.480Z,101265.13
2022-10-18T14:32:45.217Z,101267.59
2022-10-18T14:37:48.529Z,101278.00
2022-10-18T14:42:50.038Z,101287.72
2022-10-18T14:47:52.203Z,101310.31
2022-10-18T14:52:53.469Z,101317.75
2022-10-18T14:57:54.406Z,101310.31
2022-10-18T15:02:56.684Z,101312.19
2022-10-18T15:08:00.036Z,101301.00
2022-10-18T15:13:11.867Z,101297.63
2022-10-18T15:18:21.939Z,101298.28
2022-10-18T15:23:25.101Z,101299.22
2022-10-18T15:28:29.648Z,101299.19
2022-10-18T15:33:34.809Z,101305.38
2022-10-18T15:38:36.997Z,101298.63
2022-10-18T15:43:38.421Z,101310.06
2022-10-18T15:48:42.000Z,101319.75
2022-10-18T15:53:51.821Z,101326.97
2022-10-18T15:58:52.775Z,101333.31
2022-10-18T16:09:00.837Z,101334.69
2022-10-18T16:14:01.683Z,101338.28
2022-10-18T16:19:04.083Z,101337.28
2022-10-18T16:24:05.825Z,101342.72
2022-10-18T16:29:07.338Z,101341.09
2022-10-18T16:34:11.049Z,101352.56
2022-10-18T16:39:16.468Z,101351.66
2022-10-18T16:44:19.138Z,101362.28
2022-10-18T16:49:24.578Z,101367.63
2022-10-18T16:54:25.755Z,101360.56
2022-10-18T16:59:29.690Z,101363.97
2022-10-18T17:04:31.877Z,101358.72
2022-10-18T17:09:34.859Z,101366.63
2022-10-18T17:14:36.947Z,101373.88
2022-10-18T17:19:39.172Z,101368.59
2022-10-18T17:24:39.998Z,101376.34
2022-10-18T17:29:40.979Z,101378.19
2022-10-18T17:34:43.144Z,101382.84
2022-10-18T17:39:43.948Z,101387.22
2022-10-18T17:44:46.217Z,101368.84
2022-10-18T17:49:48.376Z,101379.44
2022-10-18T17:54:49.161Z,101377.81
2022-10-18T17:59:50.042Z,101383.09
2022-10-18T18:04:54.653Z,101377.84
2022-10-18T18:09:55.514Z,101380.53
2022-10-18T18:14:56.325Z,101384.75
2022-10-18T18:19:58.485Z,101372.50
2022-10-18T18:24:59.324Z,101380.38
2022-10-18T18:30:00.160Z,101376.75
2022-10-18T18:35:02.373Z,101380.31
2022-10-18T18:40:03.225Z,101380.25
2022-10-18T18:45:04.250Z,101381.03
2022-10-18T18:50:07.229Z,101383.63
2022-10-18T18:55:08.870Z,101379.28
2022-10-18T19:00:12.653Z,101381.03
2022-10-18T19:05:14.943Z,101381.91
2022-10-18T19:10:15.919Z,101383.72
2022-10-18T19:15:17.055Z,101381.97
2022-10-18T19:20:19.517Z,101393.38
2022-10-18T19:25:22.256Z,101393.41
2022-10-18T19:30:25.663Z,101400.31
2022-10-18T19:35:27.844Z,101403.88
2022-10-18T19:40:28.625Z,101397.84
2022-10-18T19:45:29.430Z,101396.22
2022-10-18T19:50:31.661Z,101404.34
2022-10-18T19:55:34.438Z,101407.84
2022-10-18T20:00:35.263Z,101396.63
2022-10-18T20:05:37.497Z,101403.88
2022-10-18T20:10:38.293Z,101411.16
2022-10-18T20:15:39.147Z,101412.84
2022-10-18T20:20:44.529Z,101406.03
2022-10-18T20:25:58.723Z,101401.81
2022-10-18T20:31:05.136Z,101404.41
2022-10-18T20:36:09.481Z,101396.50
2022-10-18T20:41:12.420Z,101406.00
2022-10-18T20:46:13.185Z,101408.72
2022-10-18T20:51:16.304Z,101422.84
2022-10-18T20:56:20.225Z,101419.53
2022-10-18T21:01:22.906Z,101422.03
2022-10-18T21:06:27.002Z,101411.41
2022-10-18T21:11:29.343Z,101414.09
2022-10-18T21:16:30.560Z,101417.81
2022-10-18T21:21:33.674Z,101414.19
2022-10-18T21:26:34.513Z,101407.25
2022-10-18T21:31:37.853Z,101417.69
2022-10-18T21:36:41.221Z,101414.13
2022-10-18T21:41:43.865Z,101401.78
2022-10-18T21:46:46.684Z,101406.16
2022-10-18T21:51:48.894Z,101422.69
2022-10-18T21:56:51.139Z,101415.78
2022-10-18T22:01:52.907Z,101421.84
2022-10-18T22:06:55.182Z,101422.72
2022-10-18T22:11:56.263Z,101414.84
2022-10-18T22:16:57.093Z,101401.94
2022-10-18T22:21:59.276Z,101405.56
2022-10-18T22:27:00.087Z,101399.38
2022-10-18T22:32:01.839Z,101402.78
2022-10-18T22:37:04.069Z,101400.94
2022-10-18T22:42:06.168Z,101403.53
2022-10-18T22:47:07.017Z,101402.59
2022-10-18T22:52:09.148Z,101397.44
2022-10-18T22:57:09.905Z,101390.59
2022-10-18T23:02:10.748Z,101394.97
2022-10-18T23:07:12.933Z,101397.72
2022-10-18T23:12:13.696Z,101398.66
2022-10-18T23:17:14.541Z,101397.88
2022-10-18T23:22:21.173Z,101408.34
2022-10-18T23:27:21.941Z,101407.56
2022-10-18T23:32:22.756Z,101414.69
2022-10-18T23:37:25.094Z,101413.06
2022-10-18T23:42:26.046Z,101415.63
2022-10-18T23:47:26.839Z,101420.97
2022-10-18T23:52:28.984Z,101409.69
2022-10-18T23:57:29.789Z,101407.13
